sensor_id;sensor_type;location;lat;lon;timestamp;pressure;altitude;pressure_sealevel;temperature;humidity
23223;BME280;11780;13.904;100.620;2024-02-16T00:01:42;101378.97;;;31.06;70.28
23223;BME280;11780;13.904;100.620;2024-02-16T00:04:12;101386.94;;;31.07;70.31
23223;BME280;11780;13.904;100.620;2024-02-16T00:06:43;101390.81;;;31.06;70.55
23223;BME280;11780;13.904;100.620;2024-02-16T00:09:13;101398.28;;;31.06;70.20
23223;BME280;11780;13.904;100.620;2024-02-16T00:11:44;101390.63;;;31.03;70.58
23223;BME280;11780;13.904;100.620;2024-02-16T00:14:49;101395.53;;;31.06;70.67
23223;BME280;11780;13.904;100.620;2024-02-16T00:17:20;101395.03;;;31.04;70.35
23223;BME280;11780;13.904;100.620;2024-02-16T00:19:56;101401.66;;;31.03;70.77
23223;BME280;11780;13.904;100.620;2024-02-16T00:22:27;101407.19;;;31.03;70.53
23223;BME280;11780;13.904;100.620;2024-02-16T00:24:58;101408.84;;;31.04;70.52
23223;BME280;11780;13.904;100.620;2024-02-16T00:27:28;101402.78;;;31.02;70.49
23223;BME280;11780;13.904;100.620;2024-02-16T00:29:59;101408.50;;;31.05;70.85
23223;BME280;11780;13.904;100.620;2024-02-16T00:32:32;101409.34;;;31.06;70.84
23223;BME280;11780;13.904;100.620;2024-02-16T00:35:19;101410.97;;;31.07;70.73
23223;BME280;11780;13.904;100.620;2024-02-16T00:37:50;101414.88;;;31.06;70.96
23223;BME280;11780;13.904;100.620;2024-02-16T00:40:20;101420.41;;;31.06;70.95
23223;BME280;11780;13.904;100.620;2024-02-16T00:42:56;101431.22;;;31.02;70.95
23223;BME280;11780;13.904;100.620;2024-02-16T00:45:30;101431.56;;;31.01;71.26
23223;BME280;11780;13.904;100.620;2024-02-16T00:48:01;101434.84;;;31.03;71.22
23223;BME280;11780;13.904;100.620;2024-02-16T00:50:33;101444.25;;;31.02;71.09
23223;BME280;11780;13.904;100.620;2024-02-16T00:53:04;101444.25;;;31.02;71.32
23223;BME280;11780;13.904;100.620;2024-02-16T00:55:34;101440.13;;;30.99;71.03
23223;BME280;11780;13.904;100.620;2024-02-16T00:58:05;101444.03;;;30.98;71.20
23223;BME280;11780;13.904;100.620;2024-02-16T01:00:35;101447.63;;;30.98;71.10
23223;BME280;11780;13.904;100.620;2024-02-16T01:03:06;101453.66;;;31.01;71.23
23223;BME280;11780;13.904;100.620;2024-02-16T01:05:37;101457.22;;;31.01;71.08
23223;BME280;11780;13.904;100.620;2024-02-16T01:08:08;101461.09;;;31.00;71.18
23223;BME280;11780;13.904;100.620;2024-02-16T01:10:39;101458.88;;;31.02;71.23
23223;BME280;11780;13.904;100.620;2024-02-16T01:13:09;101461.94;;;31.01;71.24
23223;BME280;11780;13.904;100.620;2024-02-16T01:15:40;101467.47;;;31.01;71.16
23223;BME280;11780;13.904;100.620;2024-02-16T01:18:11;101477.41;;;31.02;71.55
23223;BME280;11780;13.904;100.620;2024-02-16T01:20:41;101470.94;;;31.06;71.56
23223;BME280;11780;13.904;100.620;2024-02-16T01:23:12;101475.16;;;31.04;71.38
23223;BME280;11780;13.904;100.620;2024-02-16T01:25:42;101470.44;;;31.04;71.47
23223;BME280;11780;13.904;100.620;2024-02-16T01:28:13;101474.81;;;31.05;71.65
23223;BME280;11780;13.904;100.620;2024-02-16T01:30:43;101478.91;;;31.08;72.15
23223;BME280;11780;13.904;100.620;2024-02-16T01:33:14;101475.34;;;31.07;71.85
23223;BME280;11780;13.904;100.620;2024-02-16T01:35:46;101476.47;;;31.06;72.19
23223;BME280;11780;13.904;100.620;2024-02-16T01:38:16;101482.19;;;31.10;71.54
23223;BME280;11780;13.904;100.620;2024-02-16T01:40:47;101483.63;;;31.07;71.53
23223;BME280;11780;13.904;100.620;2024-02-16T01:43:21;101484.94;;;31.10;71.53
23223;BME280;11780;13.904;100.620;2024-02-16T01:45:52;101490.78;;;31.08;71.62
23223;BME280;11780;13.904;100.620;2024-02-16T01:48:22;101505.13;;;31.10;71.56
23223;BME280;11780;13.904;100.620;2024-02-16T01:50:53;101503.19;;;31.11;71.68
23223;BME280;11780;13.904;100.620;2024-02-16T01:53:24;101506.78;;;31.11;71.44
23223;BME280;11780;13.904;100.620;2024-02-16T01:55:55;101509.03;;;31.09;71.71
23223;BME280;11780;13.904;100.620;2024-02-16T01:58:26;101519.47;;;31.12;71.49
23223;BME280;11780;13.904;100.620;2024-02-16T02:00:57;101521.63;;;31.16;71.14
23223;BME280;11780;13.904;100.620;2024-02-16T02:03:28;101534.31;;;31.17;71.27
23223;BME280;11780;13.904;100.620;2024-02-16T02:05:59;101528.28;;;31.14;71.56
23223;BME280;11780;13.904;100.620;2024-02-16T02:08:30;101533.19;;;31.18;71.58
23223;BME280;11780;13.904;100.620;2024-02-16T02:11:01;101531.25;;;31.18;71.48
23223;BME280;11780;13.904;100.620;2024-02-16T02:13:32;101530.94;;;31.20;71.09
23223;BME280;11780;13.904;100.620;2024-02-16T02:16:03;101538.44;;;31.19;71.32
23223;BME280;11780;13.904;100.620;2024-02-16T02:18:34;101544.47;;;31.21;71.46
23223;BME280;11780;13.904;100.620;2024-02-16T02:21:05;101541.72;;;31.21;71.06
23223;BME280;11780;13.904;100.620;2024-02-16T02:23:36;101545.28;;;31.22;71.10
23223;BME280;11780;13.904;100.620;2024-02-16T02:26:06;101548.84;;;31.22;71.33
23223;BME280;11780;13.904;100.620;2024-02-16T02:28:37;101546.09;;;31.22;70.99
23223;BME280;11780;13.904;100.620;2024-02-16T02:31:07;101546.31;;;31.26;70.88
23223;BME280;11780;13.904;100.620;2024-02-16T02:33:38;101548.75;;;31.27;71.12
23223;BME280;11780;13.904;100.620;2024-02-16T02:36:09;101553.78;;;31.25;71.10
23223;BME280;11780;13.904;100.620;2024-02-16T02:38:40;101550.19;;;31.25;71.14
23223;BME280;11780;13.904;100.620;2024-02-16T02:41:11;101559.63;;;31.24;70.78
23223;BME280;11780;13.904;100.620;2024-02-16T02:43:41;101554.88;;;31.24;71.13
23223;BME280;11780;13.904;100.620;2024-02-16T02:46:16;101556.25;;;31.27;70.80
23223;BME280;11780;13.904;100.620;2024-02-16T02:48:46;101554.28;;;31.27;70.61
23223;BME280;11780;13.904;100.620;2024-02-16T02:51:19;101551.53;;;31.27;70.56
23223;BME280;11780;13.904;100.620;2024-02-16T02:53:50;101553.69;;;31.31;70.57
23223;BME280;11780;13.904;100.620;2024-02-16T02:56:21;101548.94;;;31.31;70.56
23223;BME280;11780;13.904;100.620;2024-02-16T02:58:52;101548.66;;;31.33;70.62
23223;BME280;11780;13.904;100.620;2024-02-16T03:01:22;101543.13;;;31.33;70.40
23223;BME280;11780;13.904;100.620;2024-02-16T03:03:53;101540.38;;;31.33;70.23
23223;BME280;11780;13.904;100.620;2024-02-16T03:06:24;101531.56;;;31.31;70.24
23223;BME280;11780;13.904;100.620;2024-02-16T03:08:54;101535.97;;;31.32;70.12
23223;BME280;11780;13.904;100.620;2024-02-16T03:11:25;101533.19;;;31.32;70.18
23223;BME280;11780;13.904;100.620;2024-02-16T03:13:56;101529.31;;;31.33;69.86
23223;BME280;11780;13.904;100.620;2024-02-16T03:16:26;101529.81;;;31.35;70.17
23223;BME280;11780;13.904;100.620;2024-02-16T03:18:57;101529.31;;;31.33;70.04
23223;BME280;11780;13.904;100.620;2024-02-16T03:21:28;101529.31;;;31.33;70.07
23223;BME280;11780;13.904;100.620;2024-02-16T03:23:58;101522.34;;;31.35;69.77
23223;BME280;11780;13.904;100.620;2024-02-16T03:26:29;101514.38;;;31.34;69.58
23223;BME280;11780;13.904;100.620;2024-02-16T03:28:59;101515.16;;;31.34;69.98
23223;BME280;11780;13.904;100.620;2024-02-16T03:31:30;101500.22;;;31.35;70.05
23223;BME280;11780;13.904;100.620;2024-02-16T03:34:01;101497.97;;;31.37;69.70
23223;BME280;11780;13.904;100.620;2024-02-16T03:36:33;101493.56;;;31.36;69.55
23223;BME280;11780;13.904;100.620;2024-02-16T03:39:04;101487.22;;;31.36;69.38
23223;BME280;11780;13.904;100.620;2024-02-16T03:41:34;101491.63;;;31.37;69.18
23223;BME280;11780;13.904;100.620;2024-02-16T03:44:05;101489.34;;;31.39;69.00
23223;BME280;11780;13.904;100.620;2024-02-16T03:46:35;101486.31;;;31.40;68.59
23223;BME280;11780;13.904;100.620;2024-02-16T03:49:07;101478.94;;;31.36;68.82
23223;BME280;11780;13.904;100.620;2024-02-16T03:51:38;101483.81;;;31.39;68.40
23223;BME280;11780;13.904;100.620;2024-02-16T03:54:08;101476.03;;;31.41;68.23
23223;BME280;11780;13.904;100.620;2024-02-16T03:56:39;101473.78;;;31.43;68.35
23223;BME280;11780;13.904;100.620;2024-02-16T03:59:09;101465.50;;;31.43;68.31
23223;BME280;11780;13.904;100.620;2024-02-16T04:01:40;101454.44;;;31.43;68.31
23223;BME280;11780;13.904;100.620;2024-02-16T04:04:12;101451.66;;;31.43;67.82
23223;BME280;11780;13.904;100.620;2024-02-16T04:06:43;101454.44;;;31.43;67.78
23223;BME280;11780;13.904;100.620;2024-02-16T04:09:13;101446.66;;;31.45;67.59
23223;BME280;11780;13.904;100.620;2024-02-16T04:11:45;101444.69;;;31.46;67.65
23223;BME280;11780;13.904;100.620;2024-02-16T04:14:16;101440.00;;;31.46;67.52
23223;BME280;11780;13.904;100.620;2024-02-16T04:16:47;101440.00;;;31.46;67.47
23223;BME280;11780;13.904;100.620;2024-02-16T04:19:17;101440.00;;;31.46;67.50
23223;BME280;11780;13.904;100.620;2024-02-16T04:21:48;101431.09;;;31.49;66.55
23223;BME280;11780;13.904;100.620;2024-02-16T04:24:18;101422.28;;;31.47;67.23
23223;BME280;11780;13.904;100.620;2024-02-16T04:26:49;101415.63;;;31.48;67.05
23223;BME280;11780;13.904;100.620;2024-02-16T04:29:20;101417.78;;;31.51;66.82
23223;BME280;11780;13.904;100.620;2024-02-16T04:31:51;101413.66;;;31.49;66.65
23223;BME280;11780;13.904;100.620;2024-02-16T04:34:22;101399.22;;;31.52;66.57
23223;BME280;11780;13.904;100.620;2024-02-16T04:36:53;101395.66;;;31.51;66.24
23223;BME280;11780;13.904;100.620;2024-02-16T04:39:24;101396.97;;;31.54;66.16
23223;BME280;11780;13.904;100.620;2024-02-16T04:41:55;101386.22;;;31.52;66.48
23223;BME280;11780;13.904;100.620;2024-02-16T04:44:25;101388.34;;;31.55;66.16
23223;BME280;11780;13.904;100.620;2024-02-16T04:46:56;101388.34;;;31.55;66.26
23223;BME280;11780;13.904;100.620;2024-02-16T04:49:26;101387.22;;;31.56;66.37
23223;BME280;11780;13.904;100.620;2024-02-16T04:51:57;101389.34;;;31.59;66.40
23223;BME280;11780;13.904;100.620;2024-02-16T04:54:28;101375.34;;;31.56;66.25
23223;BME280;11780;13.904;100.620;2024-02-16T04:56:59;101376.66;;;31.58;65.86
23223;BME280;11780;13.904;100.620;2024-02-16T04:59:30;101377.50;;;31.59;65.52
23223;BME280;11780;13.904;100.620;2024-02-16T05:02:00;101368.06;;;31.60;65.46
23223;BME280;11780;13.904;100.620;2024-02-16T05:04:31;101373.28;;;31.62;64.98
23223;BME280;11780;13.904;100.620;2024-02-16T05:07:01;101377.16;;;31.61;65.67
23223;BME280;11780;13.904;100.620;2024-02-16T05:09:32;101365.59;;;31.58;65.81
23223;BME280;11780;13.904;100.620;2024-02-16T05:12:03;101368.06;;;31.60;65.83
23223;BME280;11780;13.904;100.620;2024-02-16T05:14:35;101362.72;;;31.64;64.71
23223;BME280;11780;13.904;100.620;2024-02-16T05:17:06;101360.25;;;31.62;65.37
23223;BME280;11780;13.904;100.620;2024-02-16T05:19:36;101353.91;;;31.62;65.58
23223;BME280;11780;13.904;100.620;2024-02-16T05:22:07;101349.19;;;31.62;65.16
23223;BME280;11780;13.904;100.620;2024-02-16T05:24:37;101345.00;;;31.65;64.69
23223;BME280;11780;13.904;100.620;2024-02-16T05:27:08;101344.50;;;31.63;65.10
23223;BME280;11780;13.904;100.620;2024-02-16T05:29:40;101336.19;;;31.63;64.42
23223;BME280;11780;13.904;100.620;2024-02-16T05:32:11;101338.00;;;31.67;63.69
23223;BME280;11780;13.904;100.620;2024-02-16T05:34:42;101337.22;;;31.67;64.11
23223;BME280;11780;13.904;100.620;2024-02-16T05:37:13;101329.38;;;31.69;64.53
23223;BME280;11780;13.904;100.620;2024-02-16T05:39:45;101320.81;;;31.70;63.99
23223;BME280;11780;13.904;100.620;2024-02-16T05:42:27;101321.09;;;31.69;64.48
23223;BME280;11780;13.904;100.620;2024-02-16T05:44:58;101316.72;;;31.68;64.18
23223;BME280;11780;13.904;100.620;2024-02-16T05:47:29;101313.31;;;31.71;63.26
23223;BME280;11780;13.904;100.620;2024-02-16T05:49:59;101305.53;;;31.73;62.98
23223;BME280;11780;13.904;100.620;2024-02-16T05:52:30;101288.13;;;31.72;63.39
23223;BME280;11780;13.904;100.620;2024-02-16T05:55:01;101287.81;;;31.74;63.46
23223;BME280;11780;13.904;100.620;2024-02-16T05:57:31;101284.25;;;31.73;63.09
23223;BME280;11780;13.904;100.620;2024-02-16T06:00:04;101280.34;;;31.74;62.66
23223;BME280;11780;13.904;100.620;2024-02-16T06:02:35;101280.44;;;31.69;63.31
23223;BME280;11780;13.904;100.620;2024-02-16T06:05:06;101281.47;;;31.73;62.77
23223;BME280;11780;13.904;100.620;2024-02-16T06:07:36;101277.25;;;31.76;62.72
23223;BME280;11780;13.904;100.620;2024-02-16T06:10:10;101268.78;;;31.72;62.11
23223;BME280;11780;13.904;100.620;2024-02-16T06:12:42;101258.72;;;31.77;61.77
23223;BME280;11780;13.904;100.620;2024-02-16T06:15:12;101256.75;;;31.77;61.99
23223;BME280;11780;13.904;100.620;2024-02-16T06:17:45;101250.41;;;31.77;61.88
23223;BME280;11780;13.904;100.620;2024-02-16T06:20:16;101242.59;;;31.79;60.94
23223;BME280;11780;13.904;100.620;2024-02-16T06:22:48;101229.59;;;31.79;60.99
23223;BME280;11780;13.904;100.620;2024-02-16T06:25:19;101230.91;;;31.82;60.75
23223;BME280;11780;13.904;100.620;2024-02-16T06:27:50;101214.00;;;31.83;60.65
23223;BME280;11780;13.904;100.620;2024-02-16T06:30:20;101209.59;;;31.82;60.61
23223;BME280;11780;13.904;100.620;2024-02-16T06:32:51;101199.03;;;31.84;60.02
23223;BME280;11780;13.904;100.620;2024-02-16T06:35:25;101202.59;;;31.85;59.84
23223;BME280;11780;13.904;100.620;2024-02-16T06:37:55;101199.84;;;31.85;60.01
23223;BME280;11780;13.904;100.620;2024-02-16T06:40:26;101186.81;;;31.85;60.58
23223;BME280;11780;13.904;100.620;2024-02-16T06:42:57;101184.88;;;31.86;60.38
23223;BME280;11780;13.904;100.620;2024-02-16T06:45:27;101179.34;;;31.86;60.43
23223;BME280;11780;13.904;100.620;2024-02-16T06:47:59;101171.03;;;31.86;60.08
23223;BME280;11780;13.904;100.620;2024-02-16T06:50:31;101160.31;;;31.84;59.84
23223;BME280;11780;13.904;100.620;2024-02-16T06:53:01;101167.94;;;31.87;60.15
23223;BME280;11780;13.904;100.620;2024-02-16T06:55:32;101158.00;;;31.86;59.67
23223;BME280;11780;13.904;100.620;2024-02-16T06:58:02;101156.56;;;31.89;60.12
23223;BME280;11780;13.904;100.620;2024-02-16T07:00:33;101152.97;;;31.88;60.41
23223;BME280;11780;13.904;100.620;2024-02-16T07:03:05;101143.53;;;31.89;60.77
23223;BME280;11780;13.904;100.620;2024-02-16T07:05:36;101145.19;;;31.91;60.50
23223;BME280;11780;13.904;100.620;2024-02-16T07:08:06;101152.34;;;31.92;60.24
23223;BME280;11780;13.904;100.620;2024-02-16T07:10:38;101141.59;;;31.90;60.40
23223;BME280;11780;13.904;100.620;2024-02-16T07:13:09;101140.78;;;31.89;60.08
23223;BME280;11780;13.904;100.620;2024-02-16T07:15:40;101147.94;;;31.91;60.33
23223;BME280;11780;13.904;100.620;2024-02-16T07:18:11;101139.66;;;31.91;59.78
23223;BME280;11780;13.904;100.620;2024-02-16T07:20:43;101136.38;;;31.88;59.11
23223;BME280;11780;13.904;100.620;2024-02-16T07:23:17;101126.94;;;31.89;59.42
23223;BME280;11780;13.904;100.620;2024-02-16T07:25:48;101132.97;;;31.92;59.43
23223;BME280;11780;13.904;100.620;2024-02-16T07:28:18;101125.50;;;31.92;59.27
23223;BME280;11780;13.904;100.620;2024-02-16T07:30:50;101123.88;;;31.91;59.71
23223;BME280;11780;13.904;100.620;2024-02-16T07:33:21;101126.81;;;31.95;59.76
23223;BME280;11780;13.904;100.620;2024-02-16T07:35:54;101118.34;;;31.91;59.51
23223;BME280;11780;13.904;100.620;2024-02-16T07:38:25;101108.56;;;31.94;59.49
23223;BME280;11780;13.904;100.620;2024-02-16T07:40:57;101103.03;;;31.94;58.77
23223;BME280;11780;13.904;100.620;2024-02-16T07:43:35;101099.13;;;31.95;58.87
23223;BME280;11780;13.904;100.620;2024-02-16T07:46:06;101091.63;;;31.95;58.73
23223;BME280;11780;13.904;100.620;2024-02-16T07:48:38;101082.53;;;31.95;58.75
23223;BME280;11780;13.904;100.620;2024-02-16T07:51:08;101082.84;;;31.93;59.31
23223;BME280;11780;13.904;100.620;2024-02-16T07:53:39;101077.31;;;31.93;59.31
23223;BME280;11780;13.904;100.620;2024-02-16T07:56:12;101074.25;;;31.95;59.01
23223;BME280;11780;13.904;100.620;2024-02-16T07:58:43;101077.66;;;32.00;59.05
23223;BME280;11780;13.904;100.620;2024-02-16T08:01:13;101070.00;;;31.97;59.33
23223;BME280;11780;13.904;100.620;2024-02-16T08:03:47;101071.97;;;31.97;58.87
23223;BME280;11780;13.904;100.620;2024-02-16T08:06:18;101071.97;;;31.97;58.66
23223;BME280;11780;13.904;100.620;2024-02-16T08:08:51;101067.56;;;31.96;58.61
23223;BME280;11780;13.904;100.620;2024-02-16T08:11:22;101062.03;;;31.96;58.47
23223;BME280;11780;13.904;100.620;2024-02-16T08:13:53;101064.81;;;31.96;58.34
23223;BME280;11780;13.904;100.620;2024-02-16T08:16:26;101071.13;;;31.96;58.71
23223;BME280;11780;13.904;100.620;2024-02-16T08:18:57;101058.44;;;31.95;59.05
23223;BME280;11780;13.904;100.620;2024-02-16T08:21:34;101061.69;;;31.97;58.23
23223;BME280;11780;13.904;100.620;2024-02-16T08:24:09;101058.63;;;31.99;58.27
23223;BME280;11780;13.904;100.620;2024-02-16T08:26:40;101062.53;;;31.98;58.39
23223;BME280;11780;13.904;100.620;2024-02-16T08:29:11;101056.66;;;31.99;58.78
23223;BME280;11780;13.904;100.620;2024-02-16T08:31:41;101057.94;;;32.02;57.87
23223;BME280;11780;13.904;100.620;2024-02-16T08:34:14;101049.66;;;32.02;57.42
23223;BME280;11780;13.904;100.620;2024-02-16T08:36:49;101046.09;;;32.01;58.10
23223;BME280;11780;13.904;100.620;2024-02-16T08:39:20;101042.97;;;32.03;58.21
23223;BME280;11780;13.904;100.620;2024-02-16T08:41:56;101044.31;;;32.06;57.50
23223;BME280;11780;13.904;100.620;2024-02-16T08:44:27;101033.53;;;32.04;57.68
23223;BME280;11780;13.904;100.620;2024-02-16T08:47:04;101038.78;;;32.06;57.28
23223;BME280;11780;13.904;100.620;2024-02-16T08:49:34;101038.44;;;32.07;56.99
23223;BME280;11780;13.904;100.620;2024-02-16T08:52:12;101037.94;;;32.05;57.22
23223;BME280;11780;13.904;100.620;2024-02-16T08:54:49;101038.44;;;32.07;57.62
23223;BME280;11780;13.904;100.620;2024-02-16T08:57:20;101039.41;;;32.11;57.38
23223;BME280;11780;13.904;100.620;2024-02-16T08:59:50;101036.16;;;32.09;57.69
23223;BME280;11780;13.904;100.620;2024-02-16T09:02:21;101036.16;;;32.09;57.64
23223;BME280;11780;13.904;100.620;2024-02-16T09:04:52;101022.31;;;32.09;57.91
23223;BME280;11780;13.904;100.620;2024-02-16T09:07:23;101024.59;;;32.07;57.98
23223;BME280;11780;13.904;100.620;2024-02-16T09:09:56;101032.56;;;32.09;57.58
23223;BME280;11780;13.904;100.620;2024-02-16T09:12:26;101025.91;;;32.10;57.64
23223;BME280;11780;13.904;100.620;2024-02-16T09:14:57;101030.63;;;32.09;57.12
23223;BME280;11780;13.904;100.620;2024-02-16T09:17:28;101027.84;;;32.09;57.55
23223;BME280;11780;13.904;100.620;2024-02-16T09:19:58;101026.22;;;32.08;57.23
23223;BME280;11780;13.904;100.620;2024-02-16T09:22:29;101022.66;;;32.08;57.19
23223;BME280;11780;13.904;100.620;2024-02-16T09:25:03;101025.44;;;32.08;57.21
23223;BME280;11780;13.904;100.620;2024-02-16T09:27:40;101027.84;;;32.09;56.94
23223;BME280;11780;13.904;100.620;2024-02-16T09:30:15;101025.09;;;32.09;56.75
23223;BME280;11780;13.904;100.620;2024-02-16T09:32:46;101024.25;;;32.09;57.15
23223;BME280;11780;13.904;100.620;2024-02-16T09:35:18;101033.88;;;32.11;56.74
23223;BME280;11780;13.904;100.620;2024-02-16T09:37:49;101029.81;;;32.09;56.58
23223;BME280;11780;13.904;100.620;2024-02-16T09:40:20;101029.81;;;32.09;57.11
23223;BME280;11780;13.904;100.620;2024-02-16T09:42:51;101034.53;;;32.08;56.87
23223;BME280;11780;13.904;100.620;2024-02-16T09:45:21;101035.03;;;32.10;57.15
23223;BME280;11780;13.904;100.620;2024-02-16T09:47:55;101041.34;;;32.11;56.75
23223;BME280;11780;13.904;100.620;2024-02-16T09:50:33;101047.22;;;32.09;57.43
23223;BME280;11780;13.904;100.620;2024-02-16T09:53:05;101036.97;;;32.10;57.05
23223;BME280;11780;13.904;100.620;2024-02-16T09:55:37;101039.72;;;32.10;57.17
23223;BME280;11780;13.904;100.620;2024-02-16T09:58:08;101040.88;;;32.09;57.34
23223;BME280;11780;13.904;100.620;2024-02-16T10:00:38;101049.16;;;32.09;57.22
23223;BME280;11780;13.904;100.620;2024-02-16T10:03:27;101043.47;;;32.05;57.30
23223;BME280;11780;13.904;100.620;2024-02-16T10:06:10;101046.25;;;32.05;57.46
23223;BME280;11780;13.904;100.620;2024-02-16T10:08:52;101053.91;;;32.08;57.61
23223;BME280;11780;13.904;100.620;2024-02-16T10:11:25;101047.88;;;32.06;57.38
23223;BME280;11780;13.904;100.620;2024-02-16T10:14:01;101050.00;;;32.09;57.65
23223;BME280;11780;13.904;100.620;2024-02-16T10:16:35;101043.63;;;32.09;57.67
23223;BME280;11780;13.904;100.620;2024-02-16T10:19:07;101044.47;;;32.09;57.44
23223;BME280;11780;13.904;100.620;2024-02-16T10:21:42;101054.69;;;32.09;57.20
23223;BME280;11780;13.904;100.620;2024-02-16T10:24:12;101046.41;;;32.09;57.35
23223;BME280;11780;13.904;100.620;2024-02-16T10:26:44;101054.41;;;32.10;57.18
23223;BME280;11780;13.904;100.620;2024-02-16T10:29:18;101057.97;;;32.11;57.73
23223;BME280;11780;13.904;100.620;2024-02-16T10:31:52;101063.84;;;32.09;57.68
23223;BME280;11780;13.904;100.620;2024-02-16T10:34:24;101062.69;;;32.10;57.69
23223;BME280;11780;13.904;100.620;2024-02-16T10:36:57;101062.34;;;32.12;57.90
23223;BME280;11780;13.904;100.620;2024-02-16T10:39:30;101065.47;;;32.10;58.16
23223;BME280;11780;13.904;100.620;2024-02-16T10:42:02;101063.50;;;32.11;58.45
23223;BME280;11780;13.904;100.620;2024-02-16T10:44:34;101075.06;;;32.13;58.62
23223;BME280;11780;13.904;100.620;2024-02-16T10:47:05;101070.66;;;32.12;59.35
23223;BME280;11780;13.904;100.620;2024-02-16T10:49:36;101078.00;;;32.16;59.32
23223;BME280;11780;13.904;100.620;2024-02-16T10:52:07;101080.75;;;32.16;59.15
23223;BME280;11780;13.904;100.620;2024-02-16T10:54:39;101084.69;;;32.15;59.75
23223;BME280;11780;13.904;100.620;2024-02-16T10:57:11;101087.47;;;32.15;59.96
23223;BME280;11780;13.904;100.620;2024-02-16T10:59:42;101088.25;;;32.16;60.13
23223;BME280;11780;13.904;100.620;2024-02-16T11:02:23;101090.22;;;32.15;60.37
23223;BME280;11780;13.904;100.620;2024-02-16T11:04:55;101099.00;;;32.17;60.59
23223;BME280;11780;13.904;100.620;2024-02-16T11:07:26;101105.84;;;32.20;60.63
23223;BME280;11780;13.904;100.620;2024-02-16T11:09:59;101116.44;;;32.18;60.65
23223;BME280;11780;13.904;100.620;2024-02-16T11:12:39;101111.69;;;32.18;60.64
23223;BME280;11780;13.904;100.620;2024-02-16T11:15:16;101115.59;;;32.17;60.55
23223;BME280;11780;13.904;100.620;2024-02-16T11:17:46;101119.50;;;32.16;60.92
23223;BME280;11780;13.904;100.620;2024-02-16T11:20:20;101118.06;;;32.19;60.86
23223;BME280;11780;13.904;100.620;2024-02-16T11:23:05;101119.50;;;32.16;61.02
23223;BME280;11780;13.904;100.620;2024-02-16T11:25:37;101129.75;;;32.16;61.22
23223;BME280;11780;13.904;100.620;2024-02-16T11:28:17;101132.19;;;32.17;60.85
23223;BME280;11780;13.904;100.620;2024-02-16T11:30:52;101125.03;;;32.16;61.12
23223;BME280;11780;13.904;100.620;2024-02-16T11:33:28;101122.59;;;32.15;61.22
23223;BME280;11780;13.904;100.620;2024-02-16T11:36:04;101120.31;;;32.17;61.08
23223;BME280;11780;13.904;100.620;2024-02-16T11:38:35;101120.16;;;32.13;61.66
23223;BME280;11780;13.904;100.620;2024-02-16T11:41:06;101131.72;;;32.15;61.79
23223;BME280;11780;13.904;100.620;2024-02-16T11:43:40;101133.34;;;32.16;61.67
23223;BME280;11780;13.904;100.620;2024-02-16T11:46:12;101122.75;;;32.18;61.53
23223;BME280;11780;13.904;100.620;2024-02-16T11:48:47;101121.31;;;32.21;61.71
23223;BME280;11780;13.904;100.620;2024-02-16T11:51:25;101121.13;;;32.17;61.74
23223;BME280;11780;13.904;100.620;2024-02-16T11:53:56;101125.53;;;32.18;61.62
23223;BME280;11780;13.904;100.620;2024-02-16T11:56:28;101128.28;;;32.18;61.93
23223;BME280;11780;13.904;100.620;2024-02-16T11:58:59;101131.56;;;32.20;61.81
23223;BME280;11780;13.904;100.620;2024-02-16T12:01:31;101133.81;;;32.18;61.89
23223;BME280;11780;13.904;100.620;2024-02-16T12:04:04;101142.63;;;32.20;62.14
23223;BME280;11780;13.904;100.620;2024-02-16T12:06:35;101139.06;;;32.20;62.20
23223;BME280;11780;13.904;100.620;2024-02-16T12:09:06;101149.78;;;32.22;62.48
23223;BME280;11780;13.904;100.620;2024-02-16T12:11:39;101154.19;;;32.23;62.28
23223;BME280;11780;13.904;100.620;2024-02-16T12:14:10;101158.44;;;32.20;62.36
23223;BME280;11780;13.904;100.620;2024-02-16T12:16:42;101166.41;;;32.22;62.65
23223;BME280;11780;13.904;100.620;2024-02-16T12:19:13;101160.38;;;32.19;62.83
23223;BME280;11780;13.904;100.620;2024-02-16T12:21:44;101167.53;;;32.20;62.87
23223;BME280;11780;13.904;100.620;2024-02-16T12:24:15;101173.91;;;32.21;63.12
23223;BME280;11780;13.904;100.620;2024-02-16T12:26:46;101175.84;;;32.20;62.85
23223;BME280;11780;13.904;100.620;2024-02-16T12:29:17;101173.41;;;32.19;62.91
23223;BME280;11780;13.904;100.620;2024-02-16T12:31:48;101185.28;;;32.19;62.89
23223;BME280;11780;13.904;100.620;2024-02-16T12:34:22;101189.69;;;32.20;63.34
23223;BME280;11780;13.904;100.620;2024-02-16T12:36:54;101199.13;;;32.19;63.51
23223;BME280;11780;13.904;100.620;2024-02-16T12:39:25;101200.25;;;32.18;63.74
23223;BME280;11780;13.904;100.620;2024-02-16T12:41:56;101206.28;;;32.20;63.92
23223;BME280;11780;13.904;100.620;2024-02-16T12:44:27;101207.13;;;32.21;64.37
23223;BME280;11780;13.904;100.620;2024-02-16T12:46:58;101209.88;;;32.21;64.40
23223;BME280;11780;13.904;100.620;2024-02-16T12:49:29;101211.81;;;32.20;64.53
23223;BME280;11780;13.904;100.620;2024-02-16T12:51:59;101212.66;;;32.21;64.72
23223;BME280;11780;13.904;100.620;2024-02-16T12:54:33;101220.47;;;32.19;64.65